Darstellungsparameter: Aktuell verwendete Einstellungen:
Skalierung der Graphiken ... ?
xyx+y,   Skalierungsfaktor:      Skalierung: Modus: x, Faktor: 1
Darstellungszeitraum ... ?
Vom - - bis: - -   Zeitraum: 18.04.2010 - 24.04.2010
Min/Max/Avg-Anzeige ... ?
Zeige MMA aktuell
Zeige MMA Monat
Zeige MMA alles
Zeige --A aktuell
Zeige --A Monat
Zeige --A alles
Keine MMA-Anzeige
MMA:
Average (ber die Originaldaten)
MMA-Basis: 18.04.2010 - 24.04.2010
Quicknavigation für Darstellung... ?
Tage:      1T, 2T, 3T, 5T -1T -2T -3T -5T +1T +2T +3T +5T
Wochen: 1W, 2W, 3W -1W -2W -3W +1W +2W +3W
Monate: 1M, 3M, 6M -1M -3M -6M +1M +3M +6M
Jahre:    1J, 3J, 5J, 10J -1J -3J -5J -10J +1J +3J +5J +10J
Nutze für die Darstellung ... ?
Originaldaten oder Mittelwerte auf ...
Stundenbasis Tagesbasis Wochenbasis
Monatsbasis Jahresbasis      Datenbasis: Original-Daten
Darstellen als:
Statistik (Auto) Statistik J:M      Darstellung:
Zur Graphik,    zurück zur Übersicht aller Sensoren.
 
Tabellarische Datenbersicht: ?
 
Sensor: Nr:Datum:Temp:Abs-Feuchte:Windchill:Wind:
Aussen-T/F 1 18-04-2010 00:04:02 9.2 C 3.57 g/m*3 9.2 C 0 km/h
2 18-04-2010 00:16:02 9 C 3.61 g/m*3 9 C 0 km/h
3 18-04-2010 00:28:02 8.9 C 3.68 g/m*3 8.9 C 0 km/h
4 18-04-2010 00:40:02 8.7 C 3.63 g/m*3 8.7 C 0 km/h
5 18-04-2010 00:52:03 8.3 C 3.54 g/m*3 8.3 C 0 km/h
6 18-04-2010 01:04:03 8.1 C 3.66 g/m*3 8.1 C 0 km/h
7 18-04-2010 01:16:03 7.8 C 3.67 g/m*3 7.8 C 0 km/h
8 18-04-2010 01:28:03 7.5 C 3.92 g/m*3 7.5 C 0 km/h
9 18-04-2010 01:40:03 7.2 C 3.92 g/m*3 7.2 C 0 km/h
10 18-04-2010 01:52:03 7.1 C 3.82 g/m*3 7.1 C 0 km/h
11 18-04-2010 02:04:03 7 C 3.8 g/m*3 7 C 0 km/h
12 18-04-2010 02:16:03 6.8 C 3.82 g/m*3 6.8 C 0 km/h
13 18-04-2010 02:28:03 6.6 C 3.85 g/m*3 6.6 C 0 km/h
14 18-04-2010 02:40:03 6.3 C 3.85 g/m*3 6.3 C 0 km/h
15 18-04-2010 02:52:03 6 C 3.85 g/m*3 6 C 0 km/h
16 18-04-2010 03:04:03 5.9 C 3.97 g/m*3 5.9 C 0 km/h
17 18-04-2010 03:16:03 5.6 C 3.89 g/m*3 5.6 C 0 km/h
18 18-04-2010 03:28:03 5.2 C 3.86 g/m*3 5.2 C 0 km/h
19 18-04-2010 03:40:03 5.3 C 4.02 g/m*3 5.3 C 0 km/h
20 18-04-2010 03:52:03 5.1 C 3.97 g/m*3 5.1 C 0 km/h
21 18-04-2010 04:04:03 5 C 3.94 g/m*3 5 C 0 km/h
22 18-04-2010 04:16:03 4.8 C 4.02 g/m*3 4.8 C 0 km/h
23 18-04-2010 04:28:03 4.5 C 4.08 g/m*3 4.5 C 0 km/h
24 18-04-2010 04:40:03 4.3 C 4.09 g/m*3 4.3 C 0 km/h
25 18-04-2010 04:52:03 4.2 C 4.06 g/m*3 4.2 C 0 km/h
Sensor: Nr:Datum:Temp:Abs-Feuchte:Windchill:Wind:
Aussen-T/F 26 18-04-2010 05:04:04 3.9 C 4.11 g/m*3 3.9 C 0 km/h
27 18-04-2010 05:16:04 3.8 C 4.08 g/m*3 3.8 C 0 km/h
28 18-04-2010 05:28:04 3.8 C 4.08 g/m*3 3.8 C 0 km/h
29 18-04-2010 05:40:04 3.6 C 4.09 g/m*3 3.6 C 0 km/h
30 18-04-2010 05:52:04 3.4 C 4.03 g/m*3 3.4 C 0 km/h
31 18-04-2010 06:04:04 3.3 C 4.06 g/m*3 3.3 C 0 km/h
32 18-04-2010 06:16:04 3.1 C 4.07 g/m*3 3.1 C 0 km/h
33 18-04-2010 06:28:04 3 C 4.04 g/m*3 3 C 0 km/h
34 18-04-2010 06:40:04 2.9 C 4.07 g/m*3 2.9 C 0 km/h
35 18-04-2010 06:52:04 2.8 C 4.11 g/m*3 2.8 C 0 km/h
36 18-04-2010 07:04:04 2.7 C 4.14 g/m*3 2.7 C 0 km/h
37 18-04-2010 07:16:04 2.6 C 4.17 g/m*3 2.6 C 0 km/h
38 18-04-2010 07:28:04 2.6 C 4.22 g/m*3 2.6 C 0 km/h
39 18-04-2010 07:40:04 2.6 C 4.17 g/m*3 2.6 C 0 km/h
40 18-04-2010 07:52:04 2.8 C 4.22 g/m*3 2.8 C 0 km/h
41 18-04-2010 08:04:02 3.1 C 4.25 g/m*3 3.1 C 0 km/h
42 18-04-2010 08:16:02 3.4 C 4.34 g/m*3 3.4 C 0 km/h
43 18-04-2010 08:28:02 3.7 C 4.36 g/m*3 3.7 C 0 km/h
44 18-04-2010 08:40:02 4 C 4.26 g/m*3 4 C 0 km/h
45 18-04-2010 08:52:01 4.3 C 4.35 g/m*3 4.3 C 0 km/h
46 18-04-2010 09:04:02 4.6 C 4.37 g/m*3 4.6 C 0 km/h
47 18-04-2010 09:16:01 5.1 C 4.38 g/m*3 5.1 C 0 km/h
48 18-04-2010 09:28:01 5.7 C 4.48 g/m*3 5.7 C 0 km/h
49 18-04-2010 09:40:02 6.3 C 4.52 g/m*3 6.3 C 0 km/h
50 18-04-2010 09:52:02 7.2 C 4.47 g/m*3 7.2 C 0 km/h
Sensor: Nr:Datum:Temp:Abs-Feuchte:Windchill:Wind:
Aussen-T/F 51 18-04-2010 10:04:02 7.9 C 4.44 g/m*3 7.9 C 0 km/h
52 18-04-2010 10:16:02 8.5 C 4.27 g/m*3 8.5 C 0 km/h
53 18-04-2010 10:28:02 9.2 C 4.29 g/m*3 9.2 C 0 km/h
54 18-04-2010 10:40:02 9.7 C 4.15 g/m*3 9.7 C 0 km/h
55 18-04-2010 10:52:02 10.7 C 4.32 g/m*3 10.7 C 0 km/h
56 18-04-2010 11:04:02 11.5 C 4.23 g/m*3 11.5 C 0 km/h
57 18-04-2010 11:16:02 12.4 C 4.37 g/m*3 12.4 C 0 km/h
58 18-04-2010 11:28:02 13.4 C 4.42 g/m*3 13.4 C 0 km/h
59 18-04-2010 11:40:02 14 C 4.34 g/m*3 14 C 0 km/h
60 18-04-2010 11:52:02 15 C 4.36 g/m*3 15 C 0 km/h
61 18-04-2010 12:04:02 15.5 C 4.23 g/m*3 15.5 C 0 km/h
62 18-04-2010 12:16:01 16.1 C 4.11 g/m*3 16.1 C 0 km/h
63 18-04-2010 12:28:01 16.6 C 3.67 g/m*3 16.6 C 0 km/h
64 18-04-2010 12:40:02 17 C 2.89 g/m*3 17 C 0 km/h
65 18-04-2010 12:52:02 17.2 C 2.93 g/m*3 17.2 C 0 km/h
66 18-04-2010 13:04:02 18 C 3.07 g/m*3 18 C 0 km/h
67 18-04-2010 13:16:02 18.5 C 3.16 g/m*3 18.5 C 0 km/h
68 18-04-2010 13:28:02 19.5 C 3.36 g/m*3 19.5 C 0 km/h
69 18-04-2010 13:40:02 19.7 C 3.4 g/m*3 19.7 C 0 km/h
70 18-04-2010 13:52:01 20.6 C 3.58 g/m*3 20.6 C 0 km/h
71 18-04-2010 14:04:02 20.1 C 3.48 g/m*3 20.1 C 0 km/h
72 18-04-2010 14:16:01 21 C 3.66 g/m*3 21 C 0 km/h
73 18-04-2010 14:28:01 22.2 C 3.93 g/m*3 22.2 C 0 km/h
74 18-04-2010 14:40:02 22 C 3.88 g/m*3 22 C 0 km/h
75 18-04-2010 14:52:02 22.7 C 4.04 g/m*3 22.7 C 0 km/h
Sensor: Nr:Datum:Temp:Abs-Feuchte:Windchill:Wind:
Aussen-T/F 76 18-04-2010 15:04:01 23.1 C 4.13 g/m*3 23.1 C 0 km/h
77 18-04-2010 15:16:02 23.5 C 4.23 g/m*3 23.5 C 0 km/h
78 18-04-2010 15:28:02 23.6 C 4.25 g/m*3 23.6 C 0 km/h
79 18-04-2010 15:40:02 23.3 C 4.18 g/m*3 23.3 C 0 km/h
80 18-04-2010 15:52:01 22.9 C 4.09 g/m*3 22.9 C 0 km/h
81 18-04-2010 16:04:02 24 C 4.35 g/m*3 24 C 0 km/h
82 18-04-2010 16:16:01 23.7 C 4.28 g/m*3 23.7 C 0 km/h
83 18-04-2010 16:28:01 24.6 C 4.5 g/m*3 24.6 C 0 km/h
84 18-04-2010 16:40:02 24.7 C 4.53 g/m*3 24.7 C 0 km/h
85 18-04-2010 16:52:02 25.1 C 4.63 g/m*3 25.1 C 0 km/h
86 18-04-2010 17:04:02 26 C 4.87 g/m*3 26 C 0 km/h
87 18-04-2010 17:16:02 26.9 C 5.12 g/m*3 26.9 C 0 km/h
88 18-04-2010 17:28:02 25.9 C 4.84 g/m*3 25.9 C 0 km/h
89 18-04-2010 17:40:02 25.1 C 4.63 g/m*3 25.1 C 0 km/h
90 18-04-2010 17:52:02 24.9 C 4.58 g/m*3 24.9 C 0 km/h
91 18-04-2010 18:04:01 25.9 C 4.84 g/m*3 25.9 C 0 km/h
92 18-04-2010 18:16:01 25.9 C 4.84 g/m*3 25.9 C 0 km/h
93 18-04-2010 18:28:01 25 C 4.6 g/m*3 25 C 0 km/h
94 18-04-2010 18:40:02 25.5 C 4.73 g/m*3 25.5 C 0 km/h
95 18-04-2010 18:52:02 24.8 C 4.55 g/m*3 24.8 C 0 km/h
96 18-04-2010 19:04:02 24.5 C 4.48 g/m*3 24.5 C 0 km/h
97 18-04-2010 19:16:02 24.1 C 4.38 g/m*3 24.1 C 0 km/h
98 18-04-2010 19:28:02 24.6 C 4.5 g/m*3 24.6 C 0 km/h
99 18-04-2010 19:40:02 24.1 C 4.38 g/m*3 24.1 C 0 km/h
100 18-04-2010 19:52:02 22.7 C 4.04 g/m*3 22.7 C 0 km/h
Sensor: Nr:Datum:Temp:Abs-Feuchte:Windchill:Wind:
Aussen-T/F 101 18-04-2010 20:04:02 21.1 C 3.69 g/m*3 21.1 C 0 km/h
102 18-04-2010 20:16:01 20 C 3.46 g/m*3 20 C 0 km/h
103 18-04-2010 20:28:01 19.1 C 3.28 g/m*3 19.1 C 0 km/h
104 18-04-2010 20:40:02 18.3 C 3.13 g/m*3 18.3 C 0 km/h
105 18-04-2010 20:52:02 18.1 C 3.09 g/m*3 18.1 C 0 km/h
106 18-04-2010 21:04:02 17.8 C 3.04 g/m*3 17.8 C 0 km/h
107 18-04-2010 21:16:02 17.5 C 2.98 g/m*3 17.5 C 0 km/h
108 18-04-2010 21:28:02 17.2 C 2.93 g/m*3 17.2 C 0 km/h
109 18-04-2010 21:40:02 16.7 C 2.84 g/m*3 16.7 C 0 km/h
110 18-04-2010 21:52:01 16.4 C 2.79 g/m*3 16.4 C 0 km/h
111 18-04-2010 22:04:01 15.7 C 2.68 g/m*3 15.7 C 0 km/h
112 18-04-2010 22:17:03 15.5 C 2.64 g/m*3 15.5 C 0 km/h
113 18-04-2010 22:29:03 15 C 2.82 g/m*3 15 C 0 km/h
114 18-04-2010 22:41:03 14.5 C 3.23 g/m*3 14.5 C 0 km/h
115 18-04-2010 22:53:03 14.1 C 3.16 g/m*3 14.1 C 0 km/h
116 18-04-2010 23:05:03 13.9 C 3.12 g/m*3 13.9 C 0 km/h
117 18-04-2010 23:17:03 13.4 C 3.14 g/m*3 13.4 C 0 km/h
118 18-04-2010 23:29:03 12.7 C 3.45 g/m*3 12.7 C 0 km/h
119 18-04-2010 23:41:03 12.3 C 3.58 g/m*3 12.3 C 0 km/h
120 18-04-2010 23:53:03 12.1 C 3.65 g/m*3 12.1 C 0 km/h
121 19-04-2010 00:05:03 11.7 C 3.87 g/m*3 11.7 C 0 km/h
122 19-04-2010 00:17:03 11.3 C 4.08 g/m*3 11.3 C 0 km/h
123 19-04-2010 00:29:03 10.9 C 4.18 g/m*3 10.9 C 0 km/h
124 19-04-2010 00:41:03 10.7 C 4.13 g/m*3 10.7 C 0 km/h
125 19-04-2010 00:53:04 10.7 C 4.13 g/m*3 10.7 C 0 km/h
Sensor: Nr:Datum:Temp:Abs-Feuchte:Windchill:Wind:
Aussen-T/F 126 19-04-2010 01:05:04 10.6 C 4 g/m*3 10.6 C 0 km/h
127 19-04-2010 01:17:04 10.3 C 3.83 g/m*3 10.3 C 0 km/h
128 19-04-2010 01:29:04 10.2 C 3.81 g/m*3 10.2 C 0 km/h
129 19-04-2010 01:41:04 10.1 C 3.88 g/m*3 10.1 C 0 km/h
130 19-04-2010 01:53:04 9.8 C 3.9 g/m*3 9.8 C 0 km/h
131 19-04-2010 02:05:04 9.4 C 4.07 g/m*3 9.4 C 0 km/h
132 19-04-2010 02:17:04 9 C 4.06 g/m*3 9 C 0 km/h
133 19-04-2010 02:29:04 8.9 C 4.03 g/m*3 8.9 C 0 km/h
134 19-04-2010 02:41:04 8.6 C 4.12 g/m*3 8.6 C 0 km/h
135 19-04-2010 02:53:04 8.5 C 4.1 g/m*3 8.5 C 0 km/h
136 19-04-2010 03:05:04 8.4 C 4.07 g/m*3 8.4 C 0 km/h
137 19-04-2010 03:17:04 8 C 4.22 g/m*3 8 C 0 km/h
138 19-04-2010 03:29:04 8 C 4.22 g/m*3 8 C 0 km/h
139 19-04-2010 03:41:04 7.8 C 4.33 g/m*3 7.8 C 0 km/h
140 19-04-2010 03:53:04 7.5 C 4.32 g/m*3 7.5 C 0 km/h
141 19-04-2010 04:05:04 7.4 C 4.29 g/m*3 7.4 C 0 km/h
142 19-04-2010 04:17:04 7.3 C 4.35 g/m*3 7.3 C 0 km/h
143 19-04-2010 04:29:04 7 C 4.34 g/m*3 7 C 0 km/h
144 19-04-2010 04:41:04 6.8 C 4.36 g/m*3 6.8 C 0 km/h
145 19-04-2010 04:53:05 6.6 C 4.38 g/m*3 6.6 C 0 km/h
146 19-04-2010 05:05:05 6.6 C 4.45 g/m*3 6.6 C 0 km/h
147 19-04-2010 05:17:05 6.8 C 4.59 g/m*3 6.8 C 0 km/h
148 19-04-2010 05:29:05 6.2 C 4.49 g/m*3 6.2 C 0 km/h
149 19-04-2010 05:41:05 5.9 C 4.54 g/m*3 5.9 C 0 km/h
150 19-04-2010 05:53:05 5.8 C 4.58 g/m*3 5.8 C 0 km/h
Sensor: Nr:Datum:Temp:Abs-Feuchte:Windchill:Wind:
Aussen-T/F 151 19-04-2010 06:05:05 5.7 C 4.55 g/m*3 5.7 C 0 km/h
152 19-04-2010 06:17:05 5.4 C 4.54 g/m*3 5.4 C 0 km/h
153 19-04-2010 06:29:05 5.2 C 4.54 g/m*3 5.2 C 0 km/h
154 19-04-2010 06:41:05 5.1 C 4.65 g/m*3 5.1 C 0 km/h
155 19-04-2010 06:53:05 5 C 4.62 g/m*3 5 C 0 km/h
156 19-04-2010 07:05:02 5 C 4.62 g/m*3 5 C 0 km/h
157 19-04-2010 07:17:02 4.8 C 4.63 g/m*3 4.8 C 0 km/h
158 19-04-2010 07:29:02 4.9 C 4.73 g/m*3 4.9 C 0 km/h
159 19-04-2010 07:41:02 5.2 C 4.75 g/m*3 5.2 C 0 km/h
160 19-04-2010 07:53:02 5.4 C 4.81 g/m*3 5.4 C 0 km/h
161 19-04-2010 08:05:02 5.7 C 4.77 g/m*3 5.7 C 0 km/h
162 19-04-2010 08:17:02 6 C 4.79 g/m*3 6 C 0 km/h
163 19-04-2010 08:29:02 6.2 C 4.78 g/m*3 6.2 C 0 km/h
164 19-04-2010 08:41:02 6.6 C 4.91 g/m*3 6.6 C 0 km/h
165 19-04-2010 08:53:01 7.5 C 5.36 g/m*3 7.5 C 0 km/h
166 19-04-2010 09:05:02 8.4 C 5.77 g/m*3 8.4 C 0 km/h
167 19-04-2010 09:17:01 8.8 C 5.83 g/m*3 8.8 C 0 km/h
168 19-04-2010 09:29:01 9.1 C 5.77 g/m*3 9.1 C 0 km/h
169 19-04-2010 09:41:02 9.4 C 5.79 g/m*3 9.4 C 0 km/h
170 19-04-2010 09:53:02 9.7 C 5.81 g/m*3 9.7 C 0 km/h
171 19-04-2010 10:05:02 10.1 C 5.77 g/m*3 10.1 C 0 km/h
172 19-04-2010 10:17:01 10.4 C 5.78 g/m*3 10.4 C 0 km/h
173 19-04-2010 10:29:01 10.7 C 5.7 g/m*3 10.7 C 0 km/h
174 19-04-2010 10:41:02 11.2 C 5.68 g/m*3 11.2 C 0 km/h
175 19-04-2010 10:53:02 11.2 C 5.68 g/m*3 11.2 C 0 km/h
Sensor: Nr:Datum:Temp:Abs-Feuchte:Windchill:Wind:
Aussen-T/F 176 19-04-2010 11:05:02 11.6 C 5.82 g/m*3 11.6 C 0 km/h
177 19-04-2010 11:17:02 12.2 C 5.72 g/m*3 12.2 C 0 km/h
178 19-04-2010 11:29:02 12.5 C 5.72 g/m*3 12.5 C 0 km/h
179 19-04-2010 11:41:02 12.9 C 5.75 g/m*3 12.9 C 0 km/h
180 19-04-2010 11:53:02 12.7 C 5.57 g/m*3 12.7 C 0 km/h
181 19-04-2010 12:05:02 13 C 5.67 g/m*3 13 C 0 km/h
182 19-04-2010 12:17:02 13.1 C 5.48 g/m*3 13.1 C 0 km/h
183 19-04-2010 12:29:02 13.6 C 5.65 g/m*3 13.6 C 0 km/h
184 19-04-2010 12:41:02 13.6 C 5.65 g/m*3 13.6 C 0 km/h
185 19-04-2010 12:53:01 13.8 C 5.6 g/m*3 13.8 C 0 km/h
186 19-04-2010 13:05:02 13.6 C 5.53 g/m*3 13.6 C 0 km/h
187 19-04-2010 13:17:01 13.9 C 5.63 g/m*3 13.9 C 0 km/h
188 19-04-2010 13:29:01 14 C 5.55 g/m*3 14 C 0 km/h
189 19-04-2010 13:41:01 14.3 C 5.41 g/m*3 14.3 C 0 km/h
190 19-04-2010 13:53:01 14.2 C 5.37 g/m*3 14.2 C 0 km/h
191 19-04-2010 14:05:02 14.8 C 5.57 g/m*3 14.8 C 0 km/h
192 19-04-2010 14:17:01 14.8 C 5.19 g/m*3 14.8 C 0 km/h
193 19-04-2010 14:29:01 15.6 C 5.45 g/m*3 15.6 C 0 km/h
194 19-04-2010 14:41:02 16.6 C 5.51 g/m*3 16.6 C 0 km/h
195 19-04-2010 14:53:02 16.2 C 5.24 g/m*3 16.2 C 0 km/h
196 19-04-2010 15:05:02 15.3 C 5.22 g/m*3 15.3 C 0 km/h
197 19-04-2010 15:17:01 15.2 C 5.19 g/m*3 15.2 C 0 km/h
198 19-04-2010 15:29:01 15.9 C 5.28 g/m*3 15.9 C 0 km/h
199 19-04-2010 15:41:02 16.5 C 5.2 g/m*3 16.5 C 0 km/h
200 19-04-2010 15:53:02 16 C 5.04 g/m*3 16 C 0 km/h
Sensor: Nr:Datum:Temp:Abs-Feuchte:Windchill:Wind:
Aussen-T/F 201 19-04-2010 16:05:02 15.8 C 5.25 g/m*3 15.8 C 0 km/h
202 19-04-2010 16:17:01 15.6 C 5.19 g/m*3 15.6 C 0 km/h
203 19-04-2010 16:29:01 16.5 C 5.34 g/m*3 16.5 C 0 km/h
204 19-04-2010 16:41:02 16.2 C 5.1 g/m*3 16.2 C 0 km/h
205 19-04-2010 16:53:02 16.9 C 5.18 g/m*3 16.9 C 0 km/h
206 19-04-2010 17:05:02 16.4 C 5.02 g/m*3 16.4 C 0 km/h
207 19-04-2010 17:17:01 16.3 C 5.13 g/m*3 16.3 C 0 km/h
208 19-04-2010 17:29:01 16.9 C 5.32 g/m*3 16.9 C 0 km/h
209 19-04-2010 17:41:02 16.9 C 5.18 g/m*3 16.9 C 0 km/h
210 19-04-2010 17:53:02 16.7 C 5.12 g/m*3 16.7 C 0 km/h
211 19-04-2010 18:05:02 16.4 C 5.02 g/m*3 16.4 C 0 km/h
212 19-04-2010 18:17:02 16.5 C 4.77 g/m*3 16.5 C 0 km/h
213 19-04-2010 18:29:02 16.1 C 4.8 g/m*3 16.1 C 0 km/h
214 19-04-2010 18:41:02 16.1 C 4.93 g/m*3 16.1 C 0 km/h
215 19-04-2010 18:53:02 16.2 C 4.83 g/m*3 16.2 C 0 km/h
216 19-04-2010 19:05:02 16.4 C 5.02 g/m*3 16.4 C 0 km/h
217 19-04-2010 19:17:02 15.3 C 4.96 g/m*3 15.3 C 0 km/h
218 19-04-2010 19:29:02 15 C 5.13 g/m*3 15 C 0 km/h
219 19-04-2010 19:41:02 14.8 C 5.19 g/m*3 14.8 C 0 km/h
220 19-04-2010 19:53:01 14.3 C 5.16 g/m*3 14.3 C 0 km/h
221 19-04-2010 20:05:02 13.9 C 5.39 g/m*3 13.9 C 0 km/h
222 19-04-2010 20:17:02 13.3 C 5.31 g/m*3 13.3 C 0 km/h
223 19-04-2010 20:29:02 13 C 5.33 g/m*3 13 C 0 km/h
224 19-04-2010 20:41:02 12.6 C 5.42 g/m*3 12.6 C 0 km/h
225 19-04-2010 20:53:02 12.3 C 5.43 g/m*3 12.3 C 0 km/h
Sensor: Nr:Datum:Temp:Abs-Feuchte:Windchill:Wind:
Aussen-T/F 226 19-04-2010 21:05:02 12.1 C 5.36 g/m*3 12.1 C 0 km/h
227 19-04-2010 21:17:02 11.8 C 5.47 g/m*3 11.8 C 0 km/h
228 19-04-2010 21:29:02 11.7 C 5.54 g/m*3 11.7 C 0 km/h
229 19-04-2010 21:41:01 11.4 C 5.44 g/m*3 11.4 C 0 km/h
230 19-04-2010 21:53:02 11.4 C 5.54 g/m*3 11.4 C 0 km/h
231 19-04-2010 22:06:03 11 C 5.51 g/m*3 11 C 0 km/h
232 19-04-2010 22:18:03 10.9 C 5.67 g/m*3 10.9 C 0 km/h
233 19-04-2010 22:30:03 10.5 C 5.63 g/m*3 10.5 C 0 km/h
234 19-04-2010 22:42:03 10.4 C 5.59 g/m*3 10.4 C 0 km/h
235 19-04-2010 22:54:03 10.3 C 5.65 g/m*3 10.3 C 0 km/h
236 19-04-2010 23:06:03 10.3 C 5.65 g/m*3 10.3 C 0 km/h
237 19-04-2010 23:18:03 10.1 C 5.58 g/m*3 10.1 C 0 km/h
238 19-04-2010 23:30:03 9.7 C 5.62 g/m*3 9.7 C 0 km/h
239 19-04-2010 23:42:03 9.4 C 5.61 g/m*3 9.4 C 0 km/h
240 19-04-2010 23:54:03 9.2 C 5.54 g/m*3 9.2 C 0 km/h
241 20-04-2010 00:06:03 9 C 5.47 g/m*3 9 C 0 km/h
242 20-04-2010 00:18:03 8.9 C 5.52 g/m*3 8.9 C 0 km/h
243 20-04-2010 00:30:03 8.6 C 5.41 g/m*3 8.6 C 0 km/h
244 20-04-2010 00:42:03 8.4 C 5.43 g/m*3 8.4 C 0 km/h
245 20-04-2010 00:54:03 8.3 C 5.48 g/m*3 8.3 C 0 km/h
246 20-04-2010 01:06:03 8.2 C 5.36 g/m*3 8.2 C 0 km/h
247 20-04-2010 01:18:04 8 C 5.37 g/m*3 8 C 0 km/h
248 20-04-2010 01:30:04 7.8 C 5.39 g/m*3 7.8 C 0 km/h
249 20-04-2010 01:42:04 7.7 C 5.35 g/m*3 7.7 C 0 km/h
250 20-04-2010 01:54:04 7.4 C 5.41 g/m*3 7.4 C 0 km/h
Sensor: Nr:Datum:Temp:Abs-Feuchte:Windchill:Wind:
Aussen-T/F 251 20-04-2010 02:06:04 7.1 C 5.46 g/m*3 7.1 C 0 km/h
252 20-04-2010 02:18:04 6.9 C 5.54 g/m*3 6.9 C 0 km/h
253 20-04-2010 02:30:04 6.7 C 5.47 g/m*3 6.7 C 0 km/h
254 20-04-2010 02:42:04 6.5 C 5.47 g/m*3 6.5 C 0 km/h
255 20-04-2010 02:54:04 6.3 C 5.48 g/m*3 6.3 C 0 km/h
256 20-04-2010 03:06:04 6.1 C 5.41 g/m*3 6.1 C 0 km/h
257 20-04-2010 03:18:04 6 C 5.44 g/m*3 6 C 0 km/h
258 20-04-2010 03:30:04 5.8 C 5.44 g/m*3 5.8 C 0 km/h
259 20-04-2010 03:42:04 5.7 C 5.55 g/m*3 5.7 C 0 km/h
260 20-04-2010 03:54:04 5.6 C 5.59 g/m*3 5.6 C 0 km/h
261 20-04-2010 04:06:04 5.4 C 5.51 g/m*3 5.4 C 0 km/h
262 20-04-2010 04:18:04 5.2 C 5.44 g/m*3 5.2 C 0 km/h
263 20-04-2010 04:30:04 5 C 5.44 g/m*3 5 C 0 km/h
264 20-04-2010 04:42:04 4.8 C 5.43 g/m*3 4.8 C 0 km/h
265 20-04-2010 04:54:04 4.7 C 5.4 g/m*3 4.7 C 0 km/h
266 20-04-2010 05:06:04 4.6 C 5.43 g/m*3 4.6 C 0 km/h
267 20-04-2010 05:18:05 4.5 C 5.32 g/m*3 4.5 C 0 km/h
268 20-04-2010 05:30:05 4.4 C 5.35 g/m*3 4.4 C 0 km/h
269 20-04-2010 05:42:05 4.2 C 5.28 g/m*3 4.2 C 0 km/h
270 20-04-2010 05:54:05 4.1 C 5.25 g/m*3 4.1 C 0 km/h
271 20-04-2010 06:06:05 3.9 C 5.31 g/m*3 3.9 C 0 km/h
272 20-04-2010 06:18:05 3.8 C 5.27 g/m*3 3.8 C 0 km/h
273 20-04-2010 06:30:05 3.6 C 5.2 g/m*3 3.6 C 0 km/h
274 20-04-2010 06:42:05 3.6 C 5.26 g/m*3 3.6 C 0 km/h
275 20-04-2010 06:54:02 3.5 C 5.23 g/m*3 3.5 C 0 km/h
Sensor: Nr:Datum:Temp:Abs-Feuchte:Windchill:Wind:
Aussen-T/F 276 20-04-2010 07:06:02 3.4 C 5.19 g/m*3 3.4 C 0 km/h
277 20-04-2010 07:18:02 3.4 C 5.19 g/m*3 3.4 C 0 km/h
278 20-04-2010 07:30:02 3.5 C 5.29 g/m*3 3.5 C 0 km/h
279 20-04-2010 07:42:01 3.5 C 5.29 g/m*3 3.5 C 0 km/h
280 20-04-2010 07:54:02 3.5 C 5.29 g/m*3 3.5 C 0 km/h
281 20-04-2010 08:06:01 3.5 C 5.35 g/m*3 3.5 C 0 km/h
282 20-04-2010 08:18:02 3.5 C 5.35 g/m*3 3.5 C 0 km/h
283 20-04-2010 08:30:02 3.7 C 5.48 g/m*3 3.7 C 0 km/h
284 20-04-2010 08:42:01 4 C 5.59 g/m*3 4 C 0 km/h
285 20-04-2010 08:54:01 4.2 C 5.61 g/m*3 4.2 C 0 km/h
286 20-04-2010 09:06:01 4.4 C 5.68 g/m*3 4.4 C 0 km/h
287 20-04-2010 09:18:02 4.8 C 5.83 g/m*3 4.8 C 0 km/h
288 20-04-2010 09:30:02 5.3 C 5.89 g/m*3 5.3 C 0 km/h
289 20-04-2010 09:42:01 6 C 5.95 g/m*3 6 C 0 km/h
290 20-04-2010 09:54:03 6.9 C 6.31 g/m*3 6.9 C 0 km/h
291 20-04-2010 10:06:02 7.6 C 6.2 g/m*3 7.6 C 0 km/h
292 20-04-2010 10:18:02 8.2 C 6.11 g/m*3 8.2 C 0 km/h
293 20-04-2010 10:30:02 9.1 C 5.94 g/m*3 9.1 C 0 km/h
294 20-04-2010 10:42:02 10 C 5.92 g/m*3 10 C 0 km/h
295 20-04-2010 10:54:02 10.8 C 5.83 g/m*3 10.8 C 0 km/h
296 20-04-2010 11:06:02 11.7 C 5.65 g/m*3 11.7 C 0 km/h
297 20-04-2010 11:18:02 12.3 C 5.54 g/m*3 12.3 C 0 km/h
298 20-04-2010 11:30:02 12.8 C 5.49 g/m*3 12.8 C 0 km/h
299 20-04-2010 11:42:02 13.4 C 5.35 g/m*3 13.4 C 0 km/h
300 20-04-2010 11:54:01 14.2 C 5.25 g/m*3 14.2 C 0 km/h
Sensor: Nr:Datum:Temp:Abs-Feuchte:Windchill:Wind:
Aussen-T/F 301 20-04-2010 12:06:02 14.8 C 5.07 g/m*3 14.8 C 0 km/h
302 20-04-2010 12:18:02 15.5 C 4.76 g/m*3 15.5 C 0 km/h
303 20-04-2010 12:30:02 16.2 C 4.14 g/m*3 16.2 C 0 km/h
304 20-04-2010 12:42:02 16.9 C 4.03 g/m*3 16.9 C 0 km/h
305 20-04-2010 12:54:02 17.4 C 4 g/m*3 17.4 C 0 km/h
306 20-04-2010 13:06:02 18 C 3.07 g/m*3 18 C 0 km/h
307 20-04-2010 13:18:02 18.6 C 3.18 g/m*3 18.6 C 0 km/h
308 20-04-2010 13:30:02 18.1 C 3.09 g/m*3 18.1 C 0 km/h
309 20-04-2010 13:42:01 19.1 C 3.28 g/m*3 19.1 C 0 km/h
310 20-04-2010 13:54:02 18.8 C 3.22 g/m*3 18.8 C 0 km/h
311 20-04-2010 14:06:01 19.3 C 3.32 g/m*3 19.3 C 0 km/h
312 20-04-2010 14:18:02 19.1 C 3.28 g/m*3 19.1 C 0 km/h
313 20-04-2010 14:30:02 18.5 C 3.16 g/m*3 18.5 C 0 km/h
314 20-04-2010 14:42:01 18.9 C 3.24 g/m*3 18.9 C 0 km/h
315 20-04-2010 14:54:02 20.2 C 3.5 g/m*3 20.2 C 0 km/h
316 20-04-2010 15:06:01 20.4 C 3.54 g/m*3 20.4 C 0 km/h
317 20-04-2010 15:18:02 20.7 C 3.6 g/m*3 20.7 C 0 km/h
318 20-04-2010 15:30:02 20.9 C 3.64 g/m*3 20.9 C 0 km/h
319 20-04-2010 15:42:01 20.8 C 3.62 g/m*3 20.8 C 0 km/h
320 20-04-2010 15:54:03 21.3 C 3.73 g/m*3 21.3 C 0 km/h
321 20-04-2010 16:06:02 21.4 C 3.75 g/m*3 21.4 C 0 km/h
322 20-04-2010 16:18:02 21.6 C 3.79 g/m*3 21.6 C 0 km/h
323 20-04-2010 16:30:02 21.5 C 3.77 g/m*3 21.5 C 0 km/h
324 20-04-2010 16:42:02 21.1 C 3.69 g/m*3 21.1 C 0 km/h
325 20-04-2010 16:54:02 20.6 C 3.58 g/m*3 20.6 C 0 km/h
Sensor: Nr:Datum:Temp:Abs-Feuchte:Windchill:Wind:
Aussen-T/F 326 20-04-2010 17:06:02 19.9 C 3.44 g/m*3 19.9 C 0 km/h
327 20-04-2010 17:18:02 19.7 C 3.4 g/m*3 19.7 C 0 km/h
328 20-04-2010 17:30:02 18.9 C 3.73 g/m*3 18.9 C 0 km/h
329 20-04-2010 17:42:02 18.8 C 4.03 g/m*3 18.8 C 0 km/h
330 20-04-2010 17:54:02 18 C 3.99 g/m*3 18 C 0 km/h
331 20-04-2010 18:06:02 17.5 C 4.03 g/m*3 17.5 C 0 km/h
332 20-04-2010 18:18:02 18 C 4.15 g/m*3 18 C 0 km/h
333 20-04-2010 18:30:02 17.9 C 4.12 g/m*3 17.9 C 0 km/h
334 20-04-2010 18:42:02 16.7 C 3.84 g/m*3 16.7 C 0 km/h
335 20-04-2010 18:54:02 16.9 C 4.03 g/m*3 16.9 C 0 km/h
336 20-04-2010 19:06:01 16.5 C 4.07 g/m*3 16.5 C 0 km/h
337 20-04-2010 19:18:02 15.9 C 4.06 g/m*3 15.9 C 0 km/h
338 20-04-2010 19:30:03 15.5 C 3.97 g/m*3 15.5 C 0 km/h
339 20-04-2010 19:42:01 14.9 C 4.08 g/m*3 14.9 C 0 km/h
340 20-04-2010 19:54:02 14.5 C 3.86 g/m*3 14.5 C 0 km/h
341 20-04-2010 20:06:01 13.9 C 3.6 g/m*3 13.9 C 0 km/h
342 20-04-2010 20:18:01 13.3 C 3.35 g/m*3 13.3 C 0 km/h
343 20-04-2010 20:30:01 12.8 C 3.14 g/m*3 12.8 C 0 km/h
344 20-04-2010 20:42:01 12.3 C 2.93 g/m*3 12.3 C 0 km/h
345 20-04-2010 20:54:02 12.1 C 3 g/m*3 12.1 C 0 km/h
346 20-04-2010 21:06:02 11.6 C 2.91 g/m*3 11.6 C 0 km/h
347 20-04-2010 21:18:02 11.4 C 2.77 g/m*3 11.4 C 0 km/h
348 20-04-2010 21:30:02 11.1 C 2.62 g/m*3 11.1 C 0 km/h
349 20-04-2010 21:42:02 10.8 C 2.77 g/m*3 10.8 C 0 km/h
350 20-04-2010 21:54:02 10.6 C 2.73 g/m*3 10.6 C 0 km/h
Sensor: Nr:Datum:Temp:Abs-Feuchte:Windchill:Wind:
Aussen-T/F 351 20-04-2010 22:06:02 10.3 C 2.87 g/m*3 10.3 C 0 km/h
352 20-04-2010 22:19:02 10 C 2.91 g/m*3 10 C 0 km/h
353 20-04-2010 22:31:02 9.9 C 3.08 g/m*3 9.9 C 0 km/h
354 20-04-2010 22:43:02 9.7 C 3.23 g/m*3 9.7 C 0 km/h
355 20-04-2010 22:55:02 9.4 C 3.17 g/m*3 9.4 C 0 km/h
356 20-04-2010 23:07:02 9.2 C 3.13 g/m*3 9.2 C 0 km/h
357 20-04-2010 23:19:02 9 C 3.09 g/m*3 9 C 0 km/h
358 20-04-2010 23:31:02 8.9 C 3.15 g/m*3 8.9 C 0 km/h
359 20-04-2010 23:43:02 8.6 C 3.27 g/m*3 8.6 C 0 km/h
360 20-04-2010 23:55:03 8.4 C 3.31 g/m*3 8.4 C 0 km/h
361 21-04-2010 00:07:03 8.2 C 3.35 g/m*3 8.2 C 0 km/h
362 21-04-2010 00:19:03 8 C 3.39 g/m*3 8 C 0 km/h
363 21-04-2010 00:31:03 7.8 C 3.51 g/m*3 7.8 C 0 km/h
364 21-04-2010 00:43:03 7.8 C 3.59 g/m*3 7.8 C 0 km/h
365 21-04-2010 00:55:03 7.5 C 3.6 g/m*3 7.5 C 0 km/h
366 21-04-2010 01:07:03 7.2 C 3.61 g/m*3 7.2 C 0 km/h
367 21-04-2010 01:19:03 7 C 3.56 g/m*3 7 C 0 km/h
368 21-04-2010 01:31:03 7 C 3.64 g/m*3 7 C 0 km/h
369 21-04-2010 01:43:03 6.7 C 3.65 g/m*3 6.7 C 0 km/h
370 21-04-2010 01:55:03 6.5 C 3.75 g/m*3 6.5 C 0 km/h
371 21-04-2010 02:07:03 6.3 C 3.7 g/m*3 6.3 C 0 km/h
372 21-04-2010 02:19:03 6.1 C 3.73 g/m*3 6.1 C 0 km/h
373 21-04-2010 02:31:03 5.9 C 3.82 g/m*3 5.9 C 0 km/h
374 21-04-2010 02:43:03 5.6 C 3.89 g/m*3 5.6 C 0 km/h
375 21-04-2010 02:55:03 5.2 C 3.86 g/m*3 5.2 C 0 km/h
Sensor: Nr:Datum:Temp:Abs-Feuchte:Windchill:Wind:
Aussen-T/F 376 21-04-2010 03:07:03 4.9 C 4.05 g/m*3 4.9 C 0 km/h
377 21-04-2010 03:19:03 4.7 C 4 g/m*3 4.7 C 0 km/h
378 21-04-2010 03:31:03 4.7 C 4 g/m*3 4.7 C 0 km/h
379 21-04-2010 03:43:03 4.6 C 3.97 g/m*3 4.6 C 0 km/h
380 21-04-2010 03:55:03 4.4 C 3.98 g/m*3 4.4 C 0 km/h
381 21-04-2010 04:07:04 4.3 C 4.02 g/m*3 4.3 C 0 km/h
382 21-04-2010 04:19:04 4 C 3.94 g/m*3 4 C 0 km/h
383 21-04-2010 04:31:04 3.9 C 4.04 g/m*3 3.9 C 0 km/h
384 21-04-2010 04:43:04 3.7 C 4.05 g/m*3 3.7 C 0 km/h
385 21-04-2010 04:55:04 3.5 C 4.06 g/m*3 3.5 C 0 km/h
386 21-04-2010 05:07:04 3.2 C 4.04 g/m*3 3.2 C 0 km/h
387 21-04-2010 05:19:04 3 C 4.04 g/m*3 3 C 0 km/h
388 21-04-2010 05:31:04 2.8 C 4.11 g/m*3 2.8 C 0 km/h
389 21-04-2010 05:43:04 2.6 C 4.05 g/m*3 2.6 C 0 km/h
390 21-04-2010 05:55:04 2.6 C 4.05 g/m*3 2.6 C 0 km/h
391 21-04-2010 06:07:04 2.5 C 4.08 g/m*3 2.5 C 0 km/h
392 21-04-2010 06:19:04 2.4 C 4.05 g/m*3 2.4 C 0 km/h
393 21-04-2010 06:31:04 2.4 C 4.05 g/m*3 2.4 C 0 km/h
394 21-04-2010 06:43:04 2.3 C 4.08 g/m*3 2.3 C 0 km/h
395 21-04-2010 06:55:04 2.4 C 4.11 g/m*3 2.4 C 0 km/h
396 21-04-2010 07:07:03 2.5 C 4.08 g/m*3 2.5 C 0 km/h
397 21-04-2010 07:19:02 2.7 C 4.08 g/m*3 2.7 C 0 km/h
398 21-04-2010 07:31:03 2.8 C 4.11 g/m*3 2.8 C 0 km/h
399 21-04-2010 07:43:03 3.1 C 4.07 g/m*3 3.1 C 0 km/h
400 21-04-2010 07:55:02 3.6 C 4.15 g/m*3 3.6 C 0 km/h
Sensor: Nr:Datum:Temp:Abs-Feuchte:Windchill:Wind:
Aussen-T/F 401 21-04-2010 08:07:02 4 C 4.01 g/m*3 4 C 0 km/h
402 21-04-2010 08:19:02 4.1 C 3.97 g/m*3 4.1 C 0 km/h
403 21-04-2010 08:31:02 4.2 C 4.06 g/m*3 4.2 C 0 km/h
404 21-04-2010 08:43:02 4.4 C 4.11 g/m*3 4.4 C 0 km/h
405 21-04-2010 08:55:02 4.6 C 4.17 g/m*3 4.6 C 0 km/h
406 21-04-2010 09:07:03 4.7 C 4.2 g/m*3 4.7 C 0 km/h
407 21-04-2010 09:19:02 5 C 4.14 g/m*3 5 C 0 km/h
408 21-04-2010 09:31:03 5.3 C 4.09 g/m*3 5.3 C 0 km/h
409 21-04-2010 09:43:03 5.7 C 4.2 g/m*3 5.7 C 0 km/h
410 21-04-2010 09:55:02 6 C 4.06 g/m*3 6 C 0 km/h
411 21-04-2010 10:07:02 6.5 C 4.05 g/m*3 6.5 C 0 km/h
412 21-04-2010 10:19:01 6.8 C 4.13 g/m*3 6.8 C 0 km/h
413 21-04-2010 10:31:02 7.5 C 4.16 g/m*3 7.5 C 0 km/h
414 21-04-2010 10:43:03 7.6 C 4.03 g/m*3 7.6 C 0 km/h
415 21-04-2010 10:55:02 6.7 C 4.41 g/m*3 6.7 C 0 km/h
416 21-04-2010 11:07:02 6.5 C 4.8 g/m*3 6.5 C 0 km/h
417 21-04-2010 11:19:02 6.9 C 5.08 g/m*3 6.9 C 0 km/h
418 21-04-2010 11:31:02 7.1 C 4.91 g/m*3 7.1 C 0 km/h
419 21-04-2010 11:43:03 7.1 C 4.84 g/m*3 7.1 C 0 km/h
420 21-04-2010 11:55:01 6.7 C 4.79 g/m*3 6.7 C 0 km/h
421 21-04-2010 12:07:02 6.2 C 4.85 g/m*3 6.2 C 0 km/h
422 21-04-2010 12:19:01 5.7 C 5.19 g/m*3 5.7 C 0 km/h
423 21-04-2010 12:31:01 6.7 C 5.62 g/m*3 6.7 C 0 km/h
424 21-04-2010 12:43:01 7.8 C 5.55 g/m*3 7.8 C 0 km/h
425 21-04-2010 12:55:01 8.5 C 5.55 g/m*3 8.5 C 0 km/h
Sensor: Nr:Datum:Temp:Abs-Feuchte:Windchill:Wind:
Aussen-T/F 426 21-04-2010 13:07:02 9.5 C 5.28 g/m*3 9.5 C 0 km/h
427 21-04-2010 13:19:01 9.1 C 4.44 g/m*3 9.1 C 0 km/h
428 21-04-2010 13:31:02 9.6 C 4.49 g/m*3 9.6 C 0 km/h
429 21-04-2010 13:43:02 9.7 C 4.15 g/m*3 9.7 C 0 km/h
430 21-04-2010 13:55:02 9.8 C 4.27 g/m*3 9.8 C 0 km/h
431 21-04-2010 14:07:02 10.4 C 4.24 g/m*3 10.4 C 0 km/h
432 21-04-2010 14:19:01 10.6 C 3.9 g/m*3 10.6 C 0 km/h
433 21-04-2010 14:31:02 10.9 C 3.68 g/m*3 10.9 C 0 km/h
434 21-04-2010 14:43:02 10.5 C 3.59 g/m*3 10.5 C 0 km/h
435 21-04-2010 14:55:02 10.8 C 3.56 g/m*3 10.8 C 0 km/h
436 21-04-2010 15:07:02 11.7 C 3.66 g/m*3 11.7 C 0 km/h
437 21-04-2010 15:19:02 12 C 3.09 g/m*3 12 C 0 km/h
438 21-04-2010 15:31:02 11.7 C 3.14 g/m*3 11.7 C 0 km/h
439 21-04-2010 15:43:02 12 C 2.98 g/m*3 12 C 0 km/h
440 21-04-2010 15:55:02 12.1 C 3 g/m*3 12.1 C 0 km/h
441 21-04-2010 16:07:02 12.6 C 2.88 g/m*3 12.6 C 0 km/h
442 21-04-2010 16:19:02 13.4 C 2.91 g/m*3 13.4 C 0 km/h
443 21-04-2010 16:31:02 13.2 C 2.99 g/m*3 13.2 C 0 km/h
444 21-04-2010 16:43:02 12.1 C 3 g/m*3 12.1 C 0 km/h
445 21-04-2010 16:55:01 12.2 C 3.24 g/m*3 12.2 C 0 km/h
446 21-04-2010 17:07:02 12.4 C 2.95 g/m*3 12.4 C 0 km/h
447 21-04-2010 17:19:01 12.2 C 2.81 g/m*3 12.2 C 0 km/h
448 21-04-2010 17:31:02 12.1 C 2.79 g/m*3 12.1 C 0 km/h
449 21-04-2010 17:43:02 12.8 C 2.8 g/m*3 12.8 C 0 km/h
450 21-04-2010 17:55:02 12 C 2.56 g/m*3 12 C 0 km/h
Sensor: Nr:Datum:Temp:Abs-Feuchte:Windchill:Wind:
Aussen-T/F 451 21-04-2010 18:07:02 12.2 C 2.7 g/m*3 12.2 C 0 km/h
452 21-04-2010 18:19:01 12.5 C 2.75 g/m*3 12.5 C 0 km/h
453 21-04-2010 18:31:02 12.4 C 2.73 g/m*3 12.4 C 0 km/h
454 21-04-2010 18:43:02 12.3 C 2.17 g/m*3 12.3 C 0 km/h
455 21-04-2010 18:55:02 12.4 C 2.29 g/m*3 12.4 C 0 km/h
456 21-04-2010 19:07:02 11.6 C 2.18 g/m*3 11.6 C 0 km/h
457 21-04-2010 19:19:01 11.2 C 2.53 g/m*3 11.2 C 0 km/h
458 21-04-2010 19:31:02 11.3 C 2.24 g/m*3 11.3 C 0 km/h
459 21-04-2010 19:43:02 11.4 C 2.36 g/m*3 11.4 C 0 km/h
460 21-04-2010 19:55:02 10.8 C 2.47 g/m*3 10.8 C 0 km/h
461 21-04-2010 20:07:02 10.1 C 2.46 g/m*3 10.1 C 0 km/h
462 21-04-2010 20:19:02 9.6 C 2.66 g/m*3 9.6 C 0 km/h
463 21-04-2010 20:31:02 9.2 C 2.68 g/m*3 9.2 C 0 km/h
464 21-04-2010 20:43:02 8.8 C 2.79 g/m*3 8.8 C 0 km/h
465 21-04-2010 20:55:02 8.4 C 2.88 g/m*3 8.4 C 0 km/h
466 21-04-2010 21:07:02 8.1 C 2.91 g/m*3 8.1 C 0 km/h
467 21-04-2010 21:19:02 7.6 C 2.98 g/m*3 7.6 C 0 km/h
468 21-04-2010 21:31:02 7.2 C 2.98 g/m*3 7.2 C 0 km/h
469 21-04-2010 21:43:02 6.9 C 3.08 g/m*3 6.9 C 0 km/h
470 21-04-2010 21:55:01 6.6 C 3.1 g/m*3 6.6 C 0 km/h
471 21-04-2010 22:08:02 6.5 C 3.07 g/m*3 6.5 C 0 km/h
472 21-04-2010 22:20:02 6.5 C 3.07 g/m*3 6.5 C 0 km/h
473 21-04-2010 22:32:02 6.3 C 3.03 g/m*3 6.3 C 0 km/h
474 21-04-2010 22:44:02 6.2 C 3.16 g/m*3 6.2 C 0 km/h
475 21-04-2010 22:56:02 5.9 C 3.24 g/m*3 5.9 C 0 km/h
Sensor: Nr:Datum:Temp:Abs-Feuchte:Windchill:Wind:
Aussen-T/F 476 21-04-2010 23:08:02 5.6 C 3.32 g/m*3 5.6 C 0 km/h
477 21-04-2010 23:20:02 5.3 C 3.33 g/m*3 5.3 C 0 km/h
478 21-04-2010 23:32:02 5 C 3.4 g/m*3 5 C 0 km/h
479 21-04-2010 23:44:02 4.8 C 3.49 g/m*3 4.8 C 0 km/h
480 21-04-2010 23:56:02 4.5 C 3.42 g/m*3 4.5 C 0 km/h
481 22-04-2010 00:08:02 4.3 C 3.5 g/m*3 4.3 C 0 km/h
482 22-04-2010 00:20:03 4.1 C 3.46 g/m*3 4.1 C 0 km/h
483 22-04-2010 00:32:03 3.8 C 3.51 g/m*3 3.8 C 0 km/h
484 22-04-2010 00:44:03 3.6 C 3.47 g/m*3 3.6 C 0 km/h
485 22-04-2010 00:56:03 3.5 C 3.57 g/m*3 3.5 C 0 km/h
486 22-04-2010 01:08:03 3.4 C 3.6 g/m*3 3.4 C 0 km/h
487 22-04-2010 01:20:03 3.1 C 3.59 g/m*3 3.1 C 0 km/h
488 22-04-2010 01:32:03 2.9 C 3.66 g/m*3 2.9 C 0 km/h
489 22-04-2010 01:44:03 2.7 C 3.67 g/m*3 2.7 C 0 km/h
490 22-04-2010 01:56:03 2.5 C 3.68 g/m*3 2.5 C 0 km/h
491 22-04-2010 02:08:03 2.3 C 3.69 g/m*3 2.3 C 0 km/h
492 22-04-2010 02:20:03 2.2 C 3.72 g/m*3 2.2 C 0 km/h
493 22-04-2010 02:32:03 2 C 3.78 g/m*3 2 C 0 km/h
494 22-04-2010 02:44:03 2 C 3.78 g/m*3 2 C 0 km/h
495 22-04-2010 02:56:03 1.7 C 3.76 g/m*3 1.7 C 0 km/h
496 22-04-2010 03:08:03 1.5 C 3.71 g/m*3 1.5 C 0 km/h
497 22-04-2010 03:20:03 1.3 C 3.71 g/m*3 1.3 C 0 km/h
498 22-04-2010 03:32:03 1.3 C 3.76 g/m*3 1.3 C 0 km/h
499 22-04-2010 03:44:03 1.2 C 3.74 g/m*3 1.2 C 0 km/h
500 22-04-2010 03:56:03 1.1 C 3.76 g/m*3 1.1 C 0 km/h
Sensor: Nr:Datum:Temp:Abs-Feuchte:Windchill:Wind:
Aussen-T/F 501 22-04-2010 04:08:03 1 C 3.79 g/m*3 1 C 0 km/h
502 22-04-2010 04:20:03 0.9 C 3.81 g/m*3 0.9 C 0 km/h
503 22-04-2010 04:32:03 0.8 C 3.79 g/m*3 0.8 C 0 km/h
504 22-04-2010 04:44:04 0.7 C 3.81 g/m*3 0.7 C 0 km/h
505 22-04-2010 04:56:04 0.6 C 3.84 g/m*3 0.6 C 0 km/h
506 22-04-2010 05:08:04 0.5 C 3.76 g/m*3 0.5 C 0 km/h
507 22-04-2010 05:20:04 0.5 C 3.81 g/m*3 0.5 C 0 km/h
508 22-04-2010 05:32:04 0.3 C 3.76 g/m*3 0.3 C 0 km/h
509 22-04-2010 05:44:04 0.2 C 3.78 g/m*3 0.2 C 0 km/h
510 22-04-2010 05:56:04 0 C 3.73 g/m*3 0 C 0 km/h
511 22-04-2010 06:08:04 -0.2 C 3.68 g/m*3 -0.2 C 0 km/h
512 22-04-2010 06:20:04 -0.2 C 3.73 g/m*3 -0.2 C 0 km/h
513 22-04-2010 06:32:04 -0.2 C 3.73 g/m*3 -0.2 C 0 km/h
514 22-04-2010 06:44:04 -0.1 C 3.8 g/m*3 -0.1 C 0 km/h
515 22-04-2010 06:56:04 -0.1 C 3.85 g/m*3 -0.1 C 0 km/h
516 22-04-2010 07:08:03 -0.2 C 3.82 g/m*3 -0.2 C 0 km/h
517 22-04-2010 07:20:02 -0.2 C 3.87 g/m*3 -0.2 C 0 km/h
518 22-04-2010 07:32:02 0 C 3.92 g/m*3 0 C 0 km/h
519 22-04-2010 07:44:02 0.1 C 3.95 g/m*3 0.1 C 0 km/h
520 22-04-2010 07:56:02 0.3 C 4.01 g/m*3 0.3 C 0 km/h
521 22-04-2010 08:08:02 0.3 C 3.96 g/m*3 0.3 C 0 km/h
522 22-04-2010 08:20:02 0.5 C 4.01 g/m*3 0.5 C 0 km/h
523 22-04-2010 08:32:02 0.6 C 3.99 g/m*3 0.6 C 0 km/h
524 22-04-2010 08:44:02 0.9 C 4.02 g/m*3 0.9 C 0 km/h
525 22-04-2010 08:56:02 1.3 C 4.08 g/m*3 1.3 C 0 km/h
Sensor: Nr:Datum:Temp:Abs-Feuchte:Windchill:Wind:
Aussen-T/F 526 22-04-2010 09:08:02 1.7 C 4.08 g/m*3 1.7 C 0 km/h
527 22-04-2010 09:20:02 2.2 C 4 g/m*3 2.2 C 0 km/h
528 22-04-2010 09:32:03 2.8 C 4.05 g/m*3 2.8 C 0 km/h
529 22-04-2010 09:44:03 3.5 C 4.12 g/m*3 3.5 C 0 km/h
530 22-04-2010 09:56:02 4.5 C 4.21 g/m*3 4.5 C 0 km/h
531 22-04-2010 10:08:01 5.2 C 3.99 g/m*3 5.2 C 0 km/h
532 22-04-2010 10:20:02 5.7 C 3.99 g/m*3 5.7 C 0 km/h
533 22-04-2010 10:32:02 6.4 C 3.73 g/m*3 6.4 C 0 km/h
534 22-04-2010 10:44:02 6.8 C 3.44 g/m*3 6.8 C 0 km/h
535 22-04-2010 10:56:02 7.3 C 3.24 g/m*3 7.3 C 0 km/h
536 22-04-2010 11:08:02 8.3 C 3.2 g/m*3 8.3 C 0 km/h
537 22-04-2010 11:20:02 8.7 C 3.03 g/m*3 8.7 C 0 km/h
538 22-04-2010 11:32:03 9 C 2.91 g/m*3 9 C 0 km/h
539 22-04-2010 11:44:03 9.7 C 3.04 g/m*3 9.7 C 0 km/h
540 22-04-2010 11:56:02 9.9 C 2.89 g/m*3 9.9 C 0 km/h
541 22-04-2010 12:08:01 10 C 2.82 g/m*3 10 C 0 km/h
542 22-04-2010 12:20:02 10.4 C 2.89 g/m*3 10.4 C 0 km/h
543 22-04-2010 12:32:02 10.9 C 2.88 g/m*3 10.9 C 0 km/h
544 22-04-2010 12:44:02 11.1 C 2.92 g/m*3 11.1 C 0 km/h
545 22-04-2010 12:56:02 11.4 C 2.77 g/m*3 11.4 C 0 km/h
546 22-04-2010 13:08:01 12 C 2.66 g/m*3 12 C 0 km/h
547 22-04-2010 13:20:01 12 C 2.13 g/m*3 12 C 0 km/h
548 22-04-2010 13:32:02 13 C 2.27 g/m*3 13 C 0 km/h
549 22-04-2010 13:44:02 13.5 C 2.34 g/m*3 13.5 C 0 km/h
550 22-04-2010 13:56:02 13.3 C 2.31 g/m*3 13.3 C 0 km/h
Sensor: Nr:Datum:Temp:Abs-Feuchte:Windchill:Wind:
Aussen-T/F 551 22-04-2010 14:08:02 13.8 C 2.38 g/m*3 13.8 C 0 km/h
552 22-04-2010 14:20:02 14.9 C 2.55 g/m*3 14.9 C 0 km/h
553 22-04-2010 14:32:02 15.5 C 2.64 g/m*3 15.5 C 0 km/h
554 22-04-2010 14:44:02 16 C 2.72 g/m*3 16 C 0 km/h
555 22-04-2010 14:56:02 16.3 C 2.77 g/m*3 16.3 C 0 km/h
556 22-04-2010 15:08:01 16.1 C 2.74 g/m*3 16.1 C 0 km/h
557 22-04-2010 15:20:02 16 C 2.72 g/m*3 16 C 0 km/h
558 22-04-2010 15:32:02 16 C 2.72 g/m*3 16 C 0 km/h
559 22-04-2010 15:44:02 17.5 C 2.98 g/m*3 17.5 C 0 km/h
560 22-04-2010 15:56:02 16.3 C 2.77 g/m*3 16.3 C 0 km/h
561 22-04-2010 16:08:02 16.3 C 2.77 g/m*3 16.3 C 0 km/h
562 22-04-2010 16:20:02 17.9 C 3.05 g/m*3 17.9 C 0 km/h
563 22-04-2010 16:32:03 18.9 C 3.24 g/m*3 18.9 C 0 km/h
564 22-04-2010 16:44:03 17.5 C 2.98 g/m*3 17.5 C 0 km/h
565 22-04-2010 16:56:02 18.8 C 3.22 g/m*3 18.8 C 0 km/h
566 22-04-2010 17:08:01 19.4 C 3.34 g/m*3 19.4 C 0 km/h
567 22-04-2010 17:20:02 19.4 C 3.34 g/m*3 19.4 C 0 km/h
568 22-04-2010 17:32:02 19.8 C 3.42 g/m*3 19.8 C 0 km/h
569 22-04-2010 17:44:02 21.6 C 3.79 g/m*3 21.6 C 0 km/h
570 22-04-2010 17:56:02 21.2 C 3.71 g/m*3 21.2 C 0 km/h
571 22-04-2010 18:08:03 19.3 C 3.32 g/m*3 19.3 C 0 km/h
572 22-04-2010 18:20:02 18.5 C 3.16 g/m*3 18.5 C 0 km/h
573 22-04-2010 18:32:02 18.9 C 3.24 g/m*3 18.9 C 0 km/h
574 22-04-2010 18:44:02 18.7 C 3.2 g/m*3 18.7 C 0 km/h
575 22-04-2010 18:56:02 17.8 C 3.04 g/m*3 17.8 C 0 km/h
Sensor: Nr:Datum:Temp:Abs-Feuchte:Windchill:Wind:
Aussen-T/F 576 22-04-2010 19:08:02 17.2 C 2.93 g/m*3 17.2 C 0 km/h
577 22-04-2010 19:20:01 17 C 2.89 g/m*3 17 C 0 km/h
578 22-04-2010 19:32:02 16.9 C 2.88 g/m*3 16.9 C 0 km/h
579 22-04-2010 19:44:02 16.5 C 2.81 g/m*3 16.5 C 0 km/h
580 22-04-2010 19:56:02 16.3 C 2.77 g/m*3 16.3 C 0 km/h
581 22-04-2010 20:08:02 15.1 C 2.58 g/m*3 15.1 C 0 km/h
582 22-04-2010 20:20:02 13.9 C 2.4 g/m*3 13.9 C 0 km/h
583 22-04-2010 20:32:02 13.5 C 2.34 g/m*3 13.5 C 0 km/h
584 22-04-2010 20:44:03 12.6 C 2.21 g/m*3 12.6 C 0 km/h
585 22-04-2010 20:56:02 12 C 2.13 g/m*3 12 C 0 km/h
586 22-04-2010 21:08:03 11.7 C 2.41 g/m*3 11.7 C 0 km/h
587 22-04-2010 21:20:02 11.2 C 2.64 g/m*3 11.2 C 0 km/h
588 22-04-2010 21:32:02 10.7 C 2.65 g/m*3 10.7 C 0 km/h
589 22-04-2010 21:44:02 10.3 C 2.68 g/m*3 10.3 C 0 km/h
590 22-04-2010 21:57:02 10 C 2.82 g/m*3 10 C 0 km/h
591 22-04-2010 22:09:02 9.9 C 2.8 g/m*3 9.9 C 0 km/h
592 22-04-2010 22:21:02 9.5 C 2.73 g/m*3 9.5 C 0 km/h
593 22-04-2010 22:33:02 9.2 C 2.77 g/m*3 9.2 C 0 km/h
594 22-04-2010 22:45:02 9.1 C 2.75 g/m*3 9.1 C 0 km/h
595 22-04-2010 22:57:02 8.7 C 2.94 g/m*3 8.7 C 0 km/h
596 22-04-2010 23:09:02 8.5 C 2.99 g/m*3 8.5 C 0 km/h
597 22-04-2010 23:21:02 8.3 C 3.12 g/m*3 8.3 C 0 km/h
598 22-04-2010 23:33:02 8.2 C 3.18 g/m*3 8.2 C 0 km/h
599 22-04-2010 23:45:02 7.9 C 3.29 g/m*3 7.9 C 0 km/h
600 22-04-2010 23:57:02 7.7 C 3.32 g/m*3 7.7 C 0 km/h
Sensor: Nr:Datum:Temp:Abs-Feuchte:Windchill:Wind:
Aussen-T/F 601 23-04-2010 00:09:02 7.3 C 3.32 g/m*3 7.3 C 0 km/h
602 23-04-2010 00:21:02 7.1 C 3.28 g/m*3 7.1 C 0 km/h
603 23-04-2010 00:33:02 6.8 C 3.44 g/m*3 6.8 C 0 km/h
604 23-04-2010 00:45:02 6.5 C 3.37 g/m*3 6.5 C 0 km/h
605 23-04-2010 00:57:03 6.2 C 3.46 g/m*3 6.2 C 0 km/h
606 23-04-2010 01:09:03 6 C 3.41 g/m*3 6 C 0 km/h
607 23-04-2010 01:21:03 5.8 C 3.51 g/m*3 5.8 C 0 km/h
608 23-04-2010 01:33:03 5.5 C 3.51 g/m*3 5.5 C 0 km/h
609 23-04-2010 01:45:03 5.4 C 3.49 g/m*3 5.4 C 0 km/h
610 23-04-2010 01:57:03 5.3 C 3.53 g/m*3 5.3 C 0 km/h
611 23-04-2010 02:09:03 5 C 3.47 g/m*3 5 C 0 km/h
612 23-04-2010 02:21:03 4.8 C 3.62 g/m*3 4.8 C 0 km/h
613 23-04-2010 02:33:03 4.5 C 3.55 g/m*3 4.5 C 0 km/h
614 23-04-2010 02:45:03 4.4 C 3.59 g/m*3 4.4 C 0 km/h
615 23-04-2010 02:57:03 4.2 C 3.61 g/m*3 4.2 C 0 km/h
616 23-04-2010 03:09:03 3.9 C 3.73 g/m*3 3.9 C 0 km/h
617 23-04-2010 03:21:03 3.7 C 3.68 g/m*3 3.7 C 0 km/h
618 23-04-2010 03:33:03 3.5 C 3.75 g/m*3 3.5 C 0 km/h
619 23-04-2010 03:45:03 3.3 C 3.76 g/m*3 3.3 C 0 km/h
620 23-04-2010 03:57:03 3.2 C 3.74 g/m*3 3.2 C 0 km/h
621 23-04-2010 04:09:03 2.9 C 3.78 g/m*3 2.9 C 0 km/h
622 23-04-2010 04:21:03 2.8 C 3.75 g/m*3 2.8 C 0 km/h
623 23-04-2010 04:33:03 2.7 C 3.73 g/m*3 2.7 C 0 km/h
624 23-04-2010 04:45:03 2.5 C 3.68 g/m*3 2.5 C 0 km/h
625 23-04-2010 04:57:03 2.4 C 3.77 g/m*3 2.4 C 0 km/h
Sensor: Nr:Datum:Temp:Abs-Feuchte:Windchill:Wind:
Aussen-T/F 626 23-04-2010 05:09:04 2.2 C 3.66 g/m*3 2.2 C 0 km/h
627 23-04-2010 05:21:04 2.1 C 3.69 g/m*3 2.1 C 0 km/h
628 23-04-2010 05:33:04 1.9 C 3.7 g/m*3 1.9 C 0 km/h
629 23-04-2010 05:45:04 1.7 C 3.7 g/m*3 1.7 C 0 km/h
630 23-04-2010 05:57:04 1.6 C 3.79 g/m*3 1.6 C 0 km/h
631 23-04-2010 06:09:04 1.6 C 3.79 g/m*3 1.6 C 0 km/h
632 23-04-2010 06:21:04 1.4 C 3.79 g/m*3 1.4 C 0 km/h
633 23-04-2010 06:33:04 1.3 C 3.81 g/m*3 1.3 C 0 km/h
634 23-04-2010 06:45:04 1.2 C 3.79 g/m*3 1.2 C 0 km/h
635 23-04-2010 06:57:04 1.3 C 3.81 g/m*3 1.3 C 0 km/h
636 23-04-2010 07:09:02 1.3 C 3.81 g/m*3 1.3 C 0 km/h
637 23-04-2010 07:21:01 1.3 C 3.81 g/m*3 1.3 C 0 km/h
638 23-04-2010 07:33:02 1.5 C 3.87 g/m*3 1.5 C 0 km/h
639 23-04-2010 07:45:01 1.6 C 3.95 g/m*3 1.6 C 0 km/h
640 23-04-2010 07:57:01 1.8 C 4 g/m*3 1.8 C 0 km/h
641 23-04-2010 08:09:02 2 C 3.95 g/m*3 2 C 0 km/h
642 23-04-2010 08:21:01 2.3 C 4.03 g/m*3 2.3 C 0 km/h
643 23-04-2010 08:33:02 2.5 C 4.02 g/m*3 2.5 C 0 km/h
644 23-04-2010 08:45:02 2.9 C 4.13 g/m*3 2.9 C 0 km/h
645 23-04-2010 08:57:02 3.3 C 4.19 g/m*3 3.3 C 0 km/h
646 23-04-2010 09:09:02 3.8 C 4.27 g/m*3 3.8 C 0 km/h
647 23-04-2010 09:21:01 4.6 C 4.23 g/m*3 4.6 C 0 km/h
648 23-04-2010 09:33:02 5.4 C 4.19 g/m*3 5.4 C 0 km/h
649 23-04-2010 09:45:02 6.1 C 4.09 g/m*3 6.1 C 0 km/h
650 23-04-2010 09:57:02 6.7 C 3.95 g/m*3 6.7 C 0 km/h
Sensor: Nr:Datum:Temp:Abs-Feuchte:Windchill:Wind:
Aussen-T/F 651 23-04-2010 10:09:02 7.5 C 4 g/m*3 7.5 C 0 km/h
652 23-04-2010 10:21:01 8.3 C 3.96 g/m*3 8.3 C 0 km/h
653 23-04-2010 10:33:02 9 C 3.97 g/m*3 9 C 0 km/h
654 23-04-2010 10:45:02 9.6 C 3.94 g/m*3 9.6 C 0 km/h
655 23-04-2010 10:57:02 10.3 C 3.83 g/m*3 10.3 C 0 km/h
656 23-04-2010 11:09:02 11 C 3.8 g/m*3 11 C 0 km/h
657 23-04-2010 11:21:01 11.7 C 3.87 g/m*3 11.7 C 0 km/h
658 23-04-2010 11:33:02 12.5 C 3.85 g/m*3 12.5 C 0 km/h
659 23-04-2010 11:45:02 12.9 C 3.49 g/m*3 12.9 C 0 km/h
660 23-04-2010 11:57:02 13.5 C 3.04 g/m*3 13.5 C 0 km/h
661 23-04-2010 12:09:02 14.2 C 3.05 g/m*3 14.2 C 0 km/h
662 23-04-2010 12:21:02 14.4 C 2.47 g/m*3 14.4 C 0 km/h
663 23-04-2010 12:33:02 14.9 C 2.55 g/m*3 14.9 C 0 km/h
664 23-04-2010 12:45:02 15.2 C 2.6 g/m*3 15.2 C 0 km/h
665 23-04-2010 12:57:02 15.7 C 2.68 g/m*3 15.7 C 0 km/h
666 23-04-2010 13:09:02 16.2 C 2.76 g/m*3 16.2 C 0 km/h
667 23-04-2010 13:21:03 17 C 2.89 g/m*3 17 C 0 km/h
668 23-04-2010 13:33:02 17.4 C 2.96 g/m*3 17.4 C 0 km/h
669 23-04-2010 13:45:02 17.8 C 3.04 g/m*3 17.8 C 0 km/h
670 23-04-2010 13:57:02 17.5 C 2.98 g/m*3 17.5 C 0 km/h
671 23-04-2010 14:09:02 18.4 C 3.15 g/m*3 18.4 C 0 km/h
672 23-04-2010 14:21:02 18.5 C 3.16 g/m*3 18.5 C 0 km/h
673 23-04-2010 14:33:02 19.1 C 3.28 g/m*3 19.1 C 0 km/h
674 23-04-2010 14:45:02 19.6 C 3.38 g/m*3 19.6 C 0 km/h
675 23-04-2010 14:57:02 20.9 C 3.64 g/m*3 20.9 C 0 km/h
Sensor: Nr:Datum:Temp:Abs-Feuchte:Windchill:Wind:
Aussen-T/F 676 23-04-2010 15:09:02 22.1 C 3.9 g/m*3 22.1 C 0 km/h
677 23-04-2010 15:21:02 21.6 C 3.79 g/m*3 21.6 C 0 km/h
678 23-04-2010 15:33:02 22.5 C 3.99 g/m*3 22.5 C 0 km/h
679 23-04-2010 15:45:03 22.6 C 4.02 g/m*3 22.6 C 0 km/h
680 23-04-2010 15:57:03 22.5 C 3.99 g/m*3 22.5 C 0 km/h
681 23-04-2010 16:09:02 22.6 C 4.02 g/m*3 22.6 C 0 km/h
682 23-04-2010 16:21:02 22.9 C 4.09 g/m*3 22.9 C 0 km/h
683 23-04-2010 16:33:02 22.9 C 4.09 g/m*3 22.9 C 0 km/h
684 23-04-2010 16:45:02 23 C 4.11 g/m*3 23 C 0 km/h
685 23-04-2010 16:57:02 23.5 C 4.23 g/m*3 23.5 C 0 km/h
686 23-04-2010 17:09:03 24.5 C 4.48 g/m*3 24.5 C 0 km/h
687 23-04-2010 17:21:03 22.9 C 4.09 g/m*3 22.9 C 0 km/h
688 23-04-2010 17:33:02 22.5 C 3.99 g/m*3 22.5 C 0 km/h
689 23-04-2010 17:45:03 23 C 4.11 g/m*3 23 C 0 km/h
690 23-04-2010 17:57:03 24.5 C 4.48 g/m*3 24.5 C 0 km/h
691 23-04-2010 18:09:02 24.1 C 4.38 g/m*3 24.1 C 0 km/h
692 23-04-2010 18:21:03 22.9 C 4.09 g/m*3 22.9 C 0 km/h
693 23-04-2010 18:33:02 22.6 C 4.02 g/m*3 22.6 C 0 km/h
694 23-04-2010 18:45:02 22.1 C 3.9 g/m*3 22.1 C 0 km/h
695 23-04-2010 18:57:02 21.9 C 3.86 g/m*3 21.9 C 0 km/h
696 23-04-2010 19:09:02 21.9 C 3.86 g/m*3 21.9 C 0 km/h
697 23-04-2010 19:21:02 20.9 C 3.64 g/m*3 20.9 C 0 km/h
698 23-04-2010 19:33:02 20.2 C 3.5 g/m*3 20.2 C 0 km/h
699 23-04-2010 19:45:01 19.4 C 3.34 g/m*3 19.4 C 0 km/h
700 23-04-2010 19:57:01 19.2 C 3.3 g/m*3 19.2 C 0 km/h
Sensor: Nr:Datum:Temp:Abs-Feuchte:Windchill:Wind:
Aussen-T/F 701 23-04-2010 20:09:02 18.3 C 3.13 g/m*3 18.3 C 0 km/h
702 23-04-2010 20:21:01 17.6 C 3 g/m*3 17.6 C 0 km/h
703 23-04-2010 20:33:01 17 C 2.89 g/m*3 17 C 0 km/h
704 23-04-2010 20:45:01 16.5 C 2.81 g/m*3 16.5 C 0 km/h
705 23-04-2010 20:57:01 15.6 C 2.66 g/m*3 15.6 C 0 km/h
706 23-04-2010 21:09:01 14.9 C 2.55 g/m*3 14.9 C 0 km/h
707 23-04-2010 21:21:02 14.3 C 2.46 g/m*3 14.3 C 0 km/h
708 23-04-2010 21:33:02 14.2 C 2.44 g/m*3 14.2 C 0 km/h
709 23-04-2010 21:45:02 13.8 C 2.38 g/m*3 13.8 C 0 km/h
710 23-04-2010 21:57:02 13.4 C 2.67 g/m*3 13.4 C 0 km/h
711 23-04-2010 22:09:02 13.1 C 2.62 g/m*3 13.1 C 0 km/h
712 23-04-2010 22:21:03 12.8 C 2.91 g/m*3 12.8 C 0 km/h
713 23-04-2010 22:33:02 12.6 C 2.88 g/m*3 12.6 C 0 km/h
714 23-04-2010 22:46:04 12.4 C 2.84 g/m*3 12.4 C 0 km/h
715 23-04-2010 22:58:04 12.1 C 3.22 g/m*3 12.1 C 0 km/h
716 23-04-2010 23:10:04 11.7 C 3.24 g/m*3 11.7 C 0 km/h
717 23-04-2010 23:22:04 11.2 C 3.34 g/m*3 11.2 C 0 km/h
718 23-04-2010 23:34:04 10.7 C 3.44 g/m*3 10.7 C 0 km/h
719 23-04-2010 23:46:04 10.5 C 3.39 g/m*3 10.5 C 0 km/h
720 23-04-2010 23:58:04 10.2 C 3.43 g/m*3 10.2 C 0 km/h
721 24-04-2010 00:10:04 10 C 3.38 g/m*3 10 C 0 km/h
722 24-04-2010 00:22:04 9.6 C 3.48 g/m*3 9.6 C 0 km/h
723 24-04-2010 00:34:04 9.5 C 3.46 g/m*3 9.5 C 0 km/h
724 24-04-2010 00:46:04 9.4 C 3.53 g/m*3 9.4 C 0 km/h
725 24-04-2010 00:58:04 9 C 3.7 g/m*3 9 C 0 km/h
Sensor: Nr:Datum:Temp:Abs-Feuchte:Windchill:Wind:
Aussen-T/F 726 24-04-2010 01:10:05 8.6 C 3.52 g/m*3 8.6 C 0 km/h
727 24-04-2010 01:22:05 8.5 C 3.5 g/m*3 8.5 C 0 km/h
728 24-04-2010 01:34:05 8.4 C 3.56 g/m*3 8.4 C 0 km/h
729 24-04-2010 01:46:05 8.1 C 3.58 g/m*3 8.1 C 0 km/h
730 24-04-2010 01:58:05 7.9 C 3.61 g/m*3 7.9 C 0 km/h
731 24-04-2010 02:10:05 7.6 C 3.63 g/m*3 7.6 C 0 km/h
732 24-04-2010 02:22:05 7.2 C 3.61 g/m*3 7.2 C 0 km/h
733 24-04-2010 02:34:05 7.1 C 3.59 g/m*3 7.1 C 0 km/h
734 24-04-2010 02:46:05 6.9 C 3.62 g/m*3 6.9 C 0 km/h
735 24-04-2010 02:58:05 6.7 C 3.65 g/m*3 6.7 C 0 km/h
736 24-04-2010 03:10:05 6.6 C 3.62 g/m*3 6.6 C 0 km/h
737 24-04-2010 03:22:05 6.6 C 3.7 g/m*3 6.6 C 0 km/h
738 24-04-2010 03:34:05 6.2 C 3.6 g/m*3 6.2 C 0 km/h
739 24-04-2010 03:46:05 5.9 C 3.68 g/m*3 5.9 C 0 km/h
740 24-04-2010 03:58:05 5.7 C 3.63 g/m*3 5.7 C 0 km/h
741 24-04-2010 04:10:05 5.6 C 3.68 g/m*3 5.6 C 0 km/h
742 24-04-2010 04:22:05 5.4 C 3.7 g/m*3 5.4 C 0 km/h
743 24-04-2010 04:34:05 5.1 C 3.76 g/m*3 5.1 C 0 km/h
744 24-04-2010 04:46:05 5 C 3.74 g/m*3 5 C 0 km/h
745 24-04-2010 04:58:05 4.8 C 3.82 g/m*3 4.8 C 0 km/h
746 24-04-2010 05:10:05 4.6 C 3.77 g/m*3 4.6 C 0 km/h
747 24-04-2010 05:22:06 4.5 C 3.88 g/m*3 4.5 C 0 km/h
748 24-04-2010 05:34:06 4.4 C 3.85 g/m*3 4.4 C 0 km/h
749 24-04-2010 05:46:06 4.1 C 3.84 g/m*3 4.1 C 0 km/h
750 24-04-2010 05:58:06 4 C 3.88 g/m*3 4 C 0 km/h
Sensor: Nr:Datum:Temp:Abs-Feuchte:Windchill:Wind:
Aussen-T/F 751 24-04-2010 06:10:06 3.9 C 3.85 g/m*3 3.9 C 0 km/h
752 24-04-2010 06:22:06 3.7 C 3.86 g/m*3 3.7 C 0 km/h
753 24-04-2010 06:34:06 3.6 C 3.96 g/m*3 3.6 C 0 km/h
754 24-04-2010 06:46:06 3.5 C 4 g/m*3 3.5 C 0 km/h
755 24-04-2010 06:58:06 3.5 C 4 g/m*3 3.5 C 0 km/h
756 24-04-2010 07:10:06 3.6 C 3.96 g/m*3 3.6 C 0 km/h
757 24-04-2010 07:22:06 3.6 C 3.96 g/m*3 3.6 C 0 km/h
758 24-04-2010 07:34:03 3.7 C 4.05 g/m*3 3.7 C 0 km/h
759 24-04-2010 07:46:02 3.9 C 4.11 g/m*3 3.9 C 0 km/h
760 24-04-2010 07:58:02 4.1 C 4.1 g/m*3 4.1 C 0 km/h
761 24-04-2010 08:10:01 4.3 C 4.15 g/m*3 4.3 C 0 km/h
762 24-04-2010 08:22:02 4.5 C 4.14 g/m*3 4.5 C 0 km/h
763 24-04-2010 08:34:01 4.8 C 4.16 g/m*3 4.8 C 0 km/h
764 24-04-2010 08:46:02 5.2 C 4.06 g/m*3 5.2 C 0 km/h
765 24-04-2010 08:58:02 5.4 C 4.05 g/m*3 5.4 C 0 km/h
766 24-04-2010 09:10:02 6.1 C 4.24 g/m*3 6.1 C 0 km/h
767 24-04-2010 09:22:02 7 C 4.26 g/m*3 7 C 0 km/h
768 24-04-2010 09:34:03 7.7 C 4.3 g/m*3 7.7 C 0 km/h
769 24-04-2010 09:46:02 8.4 C 4.16 g/m*3 8.4 C 0 km/h
770 24-04-2010 09:58:03 9.2 C 4.11 g/m*3 9.2 C 0 km/h
771 24-04-2010 10:10:01 10 C 4.13 g/m*3 10 C 0 km/h
772 24-04-2010 10:22:02 10.5 C 4.07 g/m*3 10.5 C 0 km/h
773 24-04-2010 10:34:02 11.3 C 4.28 g/m*3 11.3 C 0 km/h
774 24-04-2010 10:46:02 12.1 C 4.29 g/m*3 12.1 C 0 km/h
775 24-04-2010 10:58:03 13.1 C 4.11 g/m*3 13.1 C 0 km/h
Sensor: Nr:Datum:Temp:Abs-Feuchte:Windchill:Wind:
Aussen-T/F 776 24-04-2010 11:10:02 13.8 C 4.05 g/m*3 13.8 C 0 km/h
777 24-04-2010 11:22:02 14.5 C 3.98 g/m*3 14.5 C 0 km/h
778 24-04-2010 11:34:03 15.1 C 3.87 g/m*3 15.1 C 0 km/h
779 24-04-2010 11:46:02 16 C 3.68 g/m*3 16 C 0 km/h
780 24-04-2010 11:58:03 16.8 C 3.86 g/m*3 16.8 C 0 km/h
781 24-04-2010 12:10:01 17.6 C 3.75 g/m*3 17.6 C 0 km/h
782 24-04-2010 12:22:02 18.4 C 3.15 g/m*3 18.4 C 0 km/h
783 24-04-2010 12:34:02 19 C 3.75 g/m*3 19 C 0 km/h
784 24-04-2010 12:46:02 19.6 C 3.38 g/m*3 19.6 C 0 km/h
785 24-04-2010 12:58:02 19.7 C 3.4 g/m*3 19.7 C 0 km/h
786 24-04-2010 13:10:02 20.5 C 3.56 g/m*3 20.5 C 0 km/h
787 24-04-2010 13:22:02 21.6 C 3.79 g/m*3 21.6 C 0 km/h
788 24-04-2010 13:34:03 22.3 C 3.95 g/m*3 22.3 C 0 km/h
789 24-04-2010 13:46:02 22.6 C 4.02 g/m*3 22.6 C 0 km/h
790 24-04-2010 13:58:03 22.9 C 4.09 g/m*3 22.9 C 0 km/h
791 24-04-2010 14:10:01 23.2 C 4.16 g/m*3 23.2 C 0 km/h
792 24-04-2010 14:22:02 22.9 C 4.09 g/m*3 22.9 C 0 km/h
793 24-04-2010 14:34:02 23.6 C 4.25 g/m*3 23.6 C 0 km/h
794 24-04-2010 14:46:01 24.6 C 4.5 g/m*3 24.6 C 0 km/h
795 24-04-2010 14:58:01 25.3 C 4.68 g/m*3 25.3 C 0 km/h
796 24-04-2010 15:10:01 25.8 C 4.82 g/m*3 25.8 C 0 km/h
797 24-04-2010 15:22:01 24.7 C 4.53 g/m*3 24.7 C 0 km/h
798 24-04-2010 15:34:02 25.6 C 4.76 g/m*3 25.6 C 0 km/h
799 24-04-2010 15:46:02 25.6 C 4.76 g/m*3 25.6 C 0 km/h
800 24-04-2010 15:58:02 26.4 C 4.98 g/m*3 26.4 C 0 km/h
Sensor: Nr:Datum:Temp:Abs-Feuchte:Windchill:Wind:
Aussen-T/F 801 24-04-2010 16:10:01 27.3 C 5.23 g/m*3 27.3 C 0 km/h
802 24-04-2010 16:22:02 27.9 C 5.41 g/m*3 27.9 C 0 km/h
803 24-04-2010 16:34:02 27.7 C 5.35 g/m*3 27.7 C 0 km/h
804 24-04-2010 16:46:01 28.5 C 5.59 g/m*3 28.5 C 0 km/h
805 24-04-2010 16:58:01 28.9 C 5.71 g/m*3 28.9 C 0 km/h
806 24-04-2010 17:10:01 28.9 C 5.71 g/m*3 28.9 C 0 km/h
807 24-04-2010 17:22:01 27.3 C 5.23 g/m*3 27.3 C 0 km/h
808 24-04-2010 17:34:02 28.3 C 5.53 g/m*3 28.3 C 0 km/h
809 24-04-2010 17:46:01 29 C 5.74 g/m*3 29 C 0 km/h
810 24-04-2010 17:58:01 28.8 C 5.68 g/m*3 28.8 C 0 km/h
811 24-04-2010 18:10:02 28.7 C 5.65 g/m*3 28.7 C 0 km/h
812 24-04-2010 18:22:01 28.2 C 5.5 g/m*3 28.2 C 0 km/h
813 24-04-2010 18:34:02 26.9 C 5.12 g/m*3 26.9 C 0 km/h
814 24-04-2010 18:46:01 27.5 C 5.29 g/m*3 27.5 C 0 km/h
815 24-04-2010 18:58:01 27.7 C 5.35 g/m*3 27.7 C 0 km/h
816 24-04-2010 19:10:02 27.2 C 5.2 g/m*3 27.2 C 0 km/h
817 24-04-2010 19:22:01 26.8 C 5.09 g/m*3 26.8 C 0 km/h
818 24-04-2010 19:34:02 26.3 C 4.95 g/m*3 26.3 C 0 km/h
819 24-04-2010 19:46:02 25.9 C 4.84 g/m*3 25.9 C 0 km/h
820 24-04-2010 19:58:02 25.4 C 4.71 g/m*3 25.4 C 0 km/h
821 24-04-2010 20:10:02 24.3 C 4.43 g/m*3 24.3 C 0 km/h
822 24-04-2010 20:22:02 22.9 C 4.09 g/m*3 22.9 C 0 km/h
823 24-04-2010 20:34:02 21 C 3.66 g/m*3 21 C 0 km/h
824 24-04-2010 20:46:02 20 C 3.46 g/m*3 20 C 0 km/h
825 24-04-2010 20:58:02 19.4 C 3.34 g/m*3 19.4 C 0 km/h
Sensor: Nr:Datum:Temp:Abs-Feuchte:Windchill:Wind:
Aussen-T/F 826 24-04-2010 21:10:02 19.2 C 3.3 g/m*3 19.2 C 0 km/h
827 24-04-2010 21:22:02 18.4 C 3.15 g/m*3 18.4 C 0 km/h
828 24-04-2010 21:34:02 18 C 3.07 g/m*3 18 C 0 km/h
829 24-04-2010 21:46:02 17.5 C 2.98 g/m*3 17.5 C 0 km/h
830 24-04-2010 21:58:02 16.8 C 2.86 g/m*3 16.8 C 0 km/h
831 24-04-2010 22:10:02 16.6 C 2.83 g/m*3 16.6 C 0 km/h
832 24-04-2010 22:22:03 16.5 C 2.95 g/m*3 16.5 C 0 km/h
833 24-04-2010 22:34:02 16.2 C 3.17 g/m*3 16.2 C 0 km/h
834 24-04-2010 22:47:03 15.8 C 3.37 g/m*3 15.8 C 0 km/h
835 24-04-2010 22:59:03 15.3 C 3.4 g/m*3 15.3 C 0 km/h
836 24-04-2010 23:11:03 14.8 C 3.55 g/m*3 14.8 C 0 km/h
837 24-04-2010 23:23:03 14.6 C 3.75 g/m*3 14.6 C 0 km/h
838 24-04-2010 23:35:03 14.1 C 3.76 g/m*3 14.1 C 0 km/h
839 24-04-2010 23:47:03 13.6 C 3.77 g/m*3 13.6 C 0 km/h
840 24-04-2010 23:59:04 13.4 C 3.84 g/m*3 13.4 C 0 km/h

Legende:
   Min
   Max


Maximal/Minimal-Werte vom 18.04.2010 - 24.04.2010

Sensor Min Max Avg
Temp
(Aussen-T/F)
-0.2 °C
22-04-2010  06:08:04
29 °C
24-04-2010  17:46:01
11.09 °C
Abs-Feuchte
(Aussen-T/F)
2.13 g/m*3
22-04-2010  13:20:01
6.31 g/m*3
20-04-2010  09:54:03
4.01 g/m*3
Windchill
(Aussen-T/F)
-0.2 C
22-04-2010  06:08:04
29 C
24-04-2010  17:46:01
11.08 C

Die Daten stammen von einer Davis Vantage Pro 2 Wetter-Station und werden unter Linux mit der Software wview2wettercgi und aufbereitet. Alle Angaben erfolgen ohne Gewähr für ihre Vollständigkeit oder Richtigkeit.
Kontakt: Rainer Krienke krienke@uni-koblenz.de . Meine Webseiten an der Uni Koblenz oder privat.
Version: $Revision: 0.78 $